Time;durP1;ratioP1;P1;durP2;ratioP2;P2;SDS_P1;SDS_P2;PMS_P1;PMS_P2;Temp;Humidity;BMP_temperature;BMP_pressure;BME280_temperature;BME280_humidity;BME280_pressure;Samples;Min_cycle;Max_cycle;Signal;HPM_P1;HPM_P2
2021/09/14 00:01:39;;;;;;;2.53;2.33;;;;;;;;;;5066519;28;20514;-50
2021/09/14 00:04:05;;;;;;;3.72;2.20;;;;;;;;;;5065952;28;20545;-50
2021/09/14 00:06:34;;;;;;;3.40;2.33;;;;;;;;;;5066736;28;20050;-52
2021/09/14 00:09:00;;;;;;;4.25;1.90;;;;;;;;;;5069155;28;20029;-55
2021/09/14 00:11:26;;;;;;;3.55;1.75;;;;;;;;;;5070384;28;20025;-53
2021/09/14 00:13:52;;;;;;;2.63;2.20;;;;;;;;;;5069442;28;20017;-53
2021/09/14 00:16:18;;;;;;;2.25;2.05;;;;;;;;;;5070076;28;20033;-54
2021/09/14 00:18:44;;;;;;;2.30;2.08;;;;;;;;;;5070282;28;20426;-51
2021/09/14 00:21:11;;;;;;;2.67;1.77;;;;;;;;;;5070015;28;20441;-52
2021/09/14 00:23:37;;;;;;;2.65;2.03;;;;;;;;;;5070157;28;20029;-52
2021/09/14 00:26:03;;;;;;;2.75;2.10;;;;;;;;;;5051852;28;20442;-51
2021/09/14 00:28:29;;;;;;;2.30;2.03;;;;;;;;;;5069499;28;20032;-54
2021/09/14 00:30:56;;;;;;;2.38;2.10;;;;;;;;;;5079821;28;20032;-50
2021/09/14 00:33:22;;;;;;;2.20;1.90;;;;;;;;;;5089893;28;20020;-50
2021/09/14 00:35:48;;;;;;;1.88;1.50;;;;;;;;;;5082714;28;20051;-51
2021/09/14 00:38:14;;;;;;;1.60;1.50;;;;;;;;;;5051475;28;20503;-50
2021/09/14 00:40:40;;;;;;;1.98;1.67;;;;;;;;;;5086919;28;20543;-52
2021/09/14 00:43:06;;;;;;;2.50;1.42;;;;;;;;;;5089867;28;20131;-50
2021/09/14 00:45:32;;;;;;;1.30;1.20;;;;;;;;;;5071938;28;20037;-50
2021/09/14 00:47:58;;;;;;;1.63;1.50;;;;;;;;;;5069648;28;20029;-50
2021/09/14 00:50:24;;;;;;;1.65;1.30;;;;;;;;;;5068731;28;20510;-49
2021/09/14 00:52:51;;;;;;;1.67;1.58;;;;;;;;;;5069577;28;20047;-50
2021/09/14 00:55:17;;;;;;;2.10;1.42;;;;;;;;;;5070163;28;20021;-50
2021/09/14 00:57:43;;;;;;;1.20;1.10;;;;;;;;;;5069668;28;20095;-53
2021/09/14 01:00:09;;;;;;;1.88;1.38;;;;;;;;;;5072694;28;20386;-51
2021/09/14 01:02:36;;;;;;;1.75;1.27;;;;;;;;;;5089575;28;20035;-53
2021/09/14 01:05:02;;;;;;;1.85;1.50;;;;;;;;;;5089270;28;20032;-49
2021/09/14 01:07:29;;;;;;;2.08;1.30;;;;;;;;;;5089605;28;20066;-51
2021/09/14 01:09:55;;;;;;;2.00;1.30;;;;;;;;;;5089589;28;20464;-51
2021/09/14 01:12:21;;;;;;;1.23;0.98;;;;;;;;;;5089566;28;20020;-53
2021/09/14 01:14:54;;;;;;;1.63;1.30;;;;;;;;;;5090076;28;20055;-49
2021/09/14 01:17:20;;;;;;;1.60;1.20;;;;;;;;;;5087756;28;20024;-50
2021/09/14 01:19:47;;;;;;;1.20;1.00;;;;;;;;;;5088634;28;20111;-50
2021/09/14 01:22:14;;;;;;;0.90;0.80;;;;;;;;;;5088873;28;20060;-50
2021/09/14 01:24:41;;;;;;;1.25;1.15;;;;;;;;;;5089542;28;20035;-52
2021/09/14 01:27:07;;;;;;;1.40;0.80;;;;;;;;;;5089014;28;20054;-50
2021/09/14 01:32:18;;;;;;;1.00;1.00;;;;;;;;;;5089870;28;20039;-51
2021/09/14 01:34:44;;;;;;;0.73;0.70;;;;;;;;;;5072133;28;20032;-50
2021/09/14 01:37:10;;;;;;;0.90;0.90;;;;;;;;;;5075968;28;20463;-52
2021/09/14 01:39:36;;;;;;;0.90;0.90;;;;;;;;;;5089096;28;20028;-51
2021/09/14 01:42:02;;;;;;;0.77;0.77;;;;;;;;;;5083311;28;20032;-50
2021/09/14 01:44:28;;;;;;;0.70;0.70;;;;;;;;;;5068844;28;20079;-51
2021/09/14 01:46:54;;;;;;;0.80;0.70;;;;;;;;;;5068839;28;20108;-53
2021/09/14 01:49:20;;;;;;;0.77;0.70;;;;;;;;;;5068120;28;20620;-54
2021/09/14 01:51:47;;;;;;;1.08;0.82;;;;;;;;;;5067950;28;20016;-50
2021/09/14 01:54:13;;;;;;;0.80;0.80;;;;;;;;;;5067546;28;20025;-53
2021/09/14 01:56:39;;;;;;;1.00;0.90;;;;;;;;;;5068532;28;20967;-53
2021/09/14 01:59:06;;;;;;;1.20;0.90;;;;;;;;;;5068182;28;20090;-51
2021/09/14 02:01:36;;;;;;;1.95;0.80;;;;;;;;;;5085489;28;20031;-51
2021/09/14 02:04:34;;;;;;;0.80;0.80;;;;;;;;;;5088110;28;20024;-50
2021/09/14 02:39:50;;;;;;;1.35;1.10;;;;;;;;;;5087724;28;20039;-49
2021/09/14 02:58:44;;;;;;;1.13;1.02;;;;;;;;;;5075459;28;20039;-50
2021/09/14 03:01:12;;;;;;;0.77;0.77;;;;;;;;;;5066800;28;20397;-50
2021/09/14 03:03:41;;;;;;;0.90;0.85;;;;;;;;;;5067320;28;20518;-50
2021/09/14 03:06:07;;;;;;;0.70;0.70;;;;;;;;;;5066163;28;20039;-53
2021/09/14 03:08:35;;;;;;;1.00;0.90;;;;;;;;;;5066570;28;20031;-50
2021/09/14 03:11:09;;;;;;;0.80;0.80;;;;;;;;;;5066731;28;20029;-50
2021/09/14 03:13:35;;;;;;;1.02;1.00;;;;;;;;;;5066949;28;20771;-54
2021/09/14 03:16:01;;;;;;;1.05;0.93;;;;;;;;;;5066580;28;20059;-50
2021/09/14 03:18:27;;;;;;;1.10;1.00;;;;;;;;;;5066198;28;20024;-51
2021/09/14 03:20:53;;;;;;;1.08;1.00;;;;;;;;;;5080834;28;20036;-52
2021/09/14 03:23:19;;;;;;;1.05;0.82;;;;;;;;;;5086842;28;20261;-53
2021/09/14 03:25:46;;;;;;;1.23;1.00;;;;;;;;;;5087547;28;20038;-52
2021/09/14 03:28:13;;;;;;;0.82;0.80;;;;;;;;;;5086636;28;20086;-52
2021/09/14 03:30:39;;;;;;;1.20;1.10;;;;;;;;;;5068617;28;20096;-51
2021/09/14 03:33:05;;;;;;;1.35;1.17;;;;;;;;;;5068430;28;20382;-51
2021/09/14 03:35:31;;;;;;;1.30;1.20;;;;;;;;;;5086619;28;20031;-52
2021/09/14 03:37:57;;;;;;;1.33;1.23;;;;;;;;;;5086647;28;20039;-49
2021/09/14 03:40:23;;;;;;;0.93;0.90;;;;;;;;;;5086405;28;20109;-53
2021/09/14 03:42:49;;;;;;;1.20;1.10;;;;;;;;;;5084444;28;20113;-52
2021/09/14 03:45:15;;;;;;;1.58;1.20;;;;;;;;;;5086118;28;20088;-53
2021/09/14 03:47:41;;;;;;;1.35;1.25;;;;;;;;;;5086659;28;20594;-53
2021/09/14 03:50:08;;;;;;;1.50;1.38;;;;;;;;;;5067366;28;20028;-52
2021/09/14 03:52:34;;;;;;;1.40;1.30;;;;;;;;;;5086641;28;20093;-50
2021/09/14 03:55:00;;;;;;;1.27;1.00;;;;;;;;;;5086246;28;20024;-54
2021/09/14 03:57:26;;;;;;;1.65;1.30;;;;;;;;;;5085575;28;20028;-50
2021/09/14 03:59:52;;;;;;;1.30;1.20;;;;;;;;;;5086377;28;20028;-54
2021/09/14 04:02:42;;;;;;;1.33;1.23;;;;;;;;;;5086700;28;20031;-49
2021/09/14 04:10:40;;;;;;;1.30;1.20;;;;;;;;;;5003768;28;20038;-50
2021/09/14 04:13:06;;;;;;;1.30;1.20;;;;;;;;;;5050988;28;20044;-50
2021/09/14 04:15:32;;;;;;;1.30;1.20;;;;;;;;;;5066472;28;20029;-50
2021/09/14 04:17:59;;;;;;;1.67;1.58;;;;;;;;;;5066689;28;20715;-50
2021/09/14 04:20:25;;;;;;;1.52;1.42;;;;;;;;;;5065960;28;20039;-51
2021/09/14 04:22:51;;;;;;;1.60;1.30;;;;;;;;;;5065594;28;20060;-52
2021/09/14 04:25:17;;;;;;;1.33;1.23;;;;;;;;;;5065483;28;20391;-50
2021/09/14 04:27:43;;;;;;;1.45;1.30;;;;;;;;;;5066026;28;20025;-54
2021/09/14 04:30:10;;;;;;;1.50;1.40;;;;;;;;;;5085931;28;20039;-50
2021/09/14 04:32:36;;;;;;;1.77;1.45;;;;;;;;;;5086348;28;20024;-52
2021/09/14 04:35:02;;;;;;;2.03;1.25;;;;;;;;;;5086465;28;20028;-51
2021/09/14 04:37:28;;;;;;;1.65;1.13;;;;;;;;;;5086914;28;20458;-52
2021/09/14 04:39:55;;;;;;;1.13;1.10;;;;;;;;;;5086106;28;20111;-53
2021/09/14 04:42:21;;;;;;;1.63;1.30;;;;;;;;;;5067550;28;20500;-51
2021/09/14 04:44:47;;;;;;;1.35;1.25;;;;;;;;;;5086068;28;20038;-52
2021/09/14 04:47:13;;;;;;;0.95;0.95;;;;;;;;;;5085961;28;20371;-50
2021/09/14 04:49:39;;;;;;;1.27;1.17;;;;;;;;;;5083044;28;20116;-52
2021/09/14 04:52:06;;;;;;;2.05;1.25;;;;;;;;;;5072970;28;20092;-54
2021/09/14 04:54:36;;;;;;;1.20;1.10;;;;;;;;;;5090269;28;20024;-51
2021/09/14 04:57:03;;;;;;;1.50;1.30;;;;;;;;;;5090117;28;20101;-53
2021/09/14 04:59:29;;;;;;;1.40;1.30;;;;;;;;;;5090524;28;20032;-53
2021/09/14 05:01:55;;;;;;;1.02;1.00;;;;;;;;;;5089890;28;20027;-54
2021/09/14 05:04:21;;;;;;;1.30;1.20;;;;;;;;;;5089281;28;20039;-52
2021/09/14 05:06:47;;;;;;;1.60;1.50;;;;;;;;;;5089753;28;20024;-52
2021/09/14 05:09:14;;;;;;;1.30;1.20;;;;;;;;;;5089319;28;20046;-51
2021/09/14 05:11:40;;;;;;;1.83;1.30;;;;;;;;;;5085647;28;20115;-51
2021/09/14 05:14:06;;;;;;;1.30;1.20;;;;;;;;;;5071109;28;20032;-53
2021/09/14 05:16:32;;;;;;;1.73;1.40;;;;;;;;;;5089997;28;20460;-53
2021/09/14 05:18:58;;;;;;;1.30;1.20;;;;;;;;;;5089341;28;20529;-50
2021/09/14 05:21:24;;;;;;;1.50;1.38;;;;;;;;;;5084213;28;20028;-51
2021/09/14 05:23:51;;;;;;;1.58;1.40;;;;;;;;;;5066658;28;20024;-53
2021/09/14 05:26:18;;;;;;;2.08;1.70;;;;;;;;;;5083623;28;20036;-51
2021/09/14 05:28:44;;;;;;;1.65;1.55;;;;;;;;;;5089084;28;20024;-53
2021/09/14 05:31:10;;;;;;;1.60;1.50;;;;;;;;;;5088614;28;20028;-52
2021/09/14 05:33:39;;;;;;;2.00;1.80;;;;;;;;;;5087898;28;20028;-51
2021/09/14 05:36:06;;;;;;;1.98;1.67;;;;;;;;;;5088652;28;20586;-52
2021/09/14 05:38:32;;;;;;;2.08;1.60;;;;;;;;;;5075086;28;20024;-50
2021/09/14 05:40:58;;;;;;;1.80;1.63;;;;;;;;;;5068972;28;20028;-51
2021/09/14 05:43:26;;;;;;;1.60;1.50;;;;;;;;;;5068425;28;20086;-50
2021/09/14 05:45:52;;;;;;;1.60;1.50;;;;;;;;;;5067908;28;20061;-52
2021/09/14 05:48:18;;;;;;;1.58;1.48;;;;;;;;;;5068285;28;20752;-51
2021/09/14 05:50:44;;;;;;;1.50;1.40;;;;;;;;;;5080328;28;20428;-50
2021/09/14 05:53:10;;;;;;;1.20;1.10;;;;;;;;;;5068274;28;20028;-50
2021/09/14 05:55:37;;;;;;;1.00;1.00;;;;;;;;;;5068478;28;20449;-50
2021/09/14 05:58:04;;;;;;;1.20;1.10;;;;;;;;;;5075604;28;20116;-54
2021/09/14 06:00:30;;;;;;;1.98;1.52;;;;;;;;;;5081106;28;20036;-52
2021/09/14 06:02:56;;;;;;;1.55;1.45;;;;;;;;;;5067651;28;20043;-54
2021/09/14 06:05:22;;;;;;;1.20;1.10;;;;;;;;;;5064920;28;20040;-53
2021/09/14 06:07:48;;;;;;;1.40;1.30;;;;;;;;;;5068437;28;20029;-52
2021/09/14 06:10:14;;;;;;;1.23;1.23;;;;;;;;;;5066667;28;20027;-54
2021/09/14 06:12:40;;;;;;;1.17;1.10;;;;;;;;;;5079144;28;21733;-53
2021/09/14 06:15:07;;;;;;;1.10;1.10;;;;;;;;;;5070401;28;20035;-50
2021/09/14 06:17:33;;;;;;;1.50;1.40;;;;;;;;;;5066588;28;20463;-54
2021/09/14 06:19:59;;;;;;;1.40;1.30;;;;;;;;;;5067827;28;20119;-52
2021/09/14 06:22:25;;;;;;;1.17;1.08;;;;;;;;;;5067388;28;20503;-52
2021/09/14 06:24:51;;;;;;;1.02;1.00;;;;;;;;;;5060782;28;20056;-53
2021/09/14 06:27:18;;;;;;;1.38;1.10;;;;;;;;;;5067913;28;20392;-53
2021/09/14 06:29:44;;;;;;;1.38;1.00;;;;;;;;;;5067913;28;20514;-53
2021/09/14 06:32:10;;;;;;;1.10;1.00;;;;;;;;;;5067488;28;20031;-53
2021/09/14 06:34:36;;;;;;;1.30;1.00;;;;;;;;;;5067432;28;20028;-50
2021/09/14 06:37:03;;;;;;;1.00;0.90;;;;;;;;;;5056933;28;20078;-50
2021/09/14 06:39:29;;;;;;;1.50;1.02;;;;;;;;;;5067904;28;20538;-53
2021/09/14 06:41:55;;;;;;;1.23;1.02;;;;;;;;;;5075863;28;20115;-52
2021/09/14 06:44:21;;;;;;;1.20;1.10;;;;;;;;;;5087942;28;20043;-53
2021/09/14 06:46:48;;;;;;;1.77;1.02;;;;;;;;;;5067708;28;20111;-53
2021/09/14 06:49:14;;;;;;;0.98;0.98;;;;;;;;;;5063885;28;20554;-54
2021/09/14 06:51:40;;;;;;;0.90;0.90;;;;;;;;;;5049899;28;20025;-51
2021/09/14 06:54:06;;;;;;;1.17;1.00;;;;;;;;;;5047581;28;20025;-50
2021/09/14 06:56:32;;;;;;;1.20;1.10;;;;;;;;;;5047952;28;20628;-52
2021/09/14 06:58:58;;;;;;;1.27;1.17;;;;;;;;;;5048238;28;20442;-51
2021/09/14 07:01:24;;;;;;;2.05;1.30;;;;;;;;;;5061572;28;20028;-53
2021/09/14 07:03:50;;;;;;;1.00;1.00;;;;;;;;;;5065772;28;20032;-51
2021/09/14 07:06:16;;;;;;;1.17;1.08;;;;;;;;;;5078228;28;20031;-51
2021/09/14 07:08:42;;;;;;;1.08;1.02;;;;;;;;;;5080875;28;20059;-54
2021/09/14 07:11:08;;;;;;;1.10;1.00;;;;;;;;;;5073642;28;20089;-52
2021/09/14 07:13:34;;;;;;;0.70;0.70;;;;;;;;;;5087464;28;20399;-49
2021/09/14 07:16:00;;;;;;;1.02;1.00;;;;;;;;;;5086198;28;20024;-51
2021/09/14 07:18:26;;;;;;;1.13;1.02;;;;;;;;;;5086265;28;20498;-53
2021/09/14 07:20:54;;;;;;;1.52;1.17;;;;;;;;;;5063917;28;20286;-53
2021/09/14 07:23:21;;;;;;;1.45;1.10;;;;;;;;;;5065100;28;20028;-52
2021/09/14 07:25:47;;;;;;;1.17;1.00;;;;;;;;;;5065744;28;20030;-54
2021/09/14 07:28:13;;;;;;;0.80;0.80;;;;;;;;;;5065657;28;20419;-50
2021/09/14 07:30:40;;;;;;;1.20;1.10;;;;;;;;;;5065060;28;20056;-51
2021/09/14 07:33:06;;;;;;;1.15;0.82;;;;;;;;;;5064711;28;20082;-51
2021/09/14 07:35:32;;;;;;;1.27;1.08;;;;;;;;;;5065404;28;20441;-51
2021/09/14 07:37:59;;;;;;;1.20;1.10;;;;;;;;;;5065007;28;20436;-54
2021/09/14 07:40:26;;;;;;;0.82;0.70;;;;;;;;;;5065024;28;20035;-52
2021/09/14 07:42:54;;;;;;;1.10;1.00;;;;;;;;;;5064783;28;20568;-51
2021/09/14 07:45:20;;;;;;;0.88;0.88;;;;;;;;;;5065047;28;20024;-50
2021/09/14 07:47:46;;;;;;;1.00;1.00;;;;;;;;;;5065201;28;20229;-50
2021/09/14 07:50:12;;;;;;;1.02;0.93;;;;;;;;;;5064584;28;20028;-51
2021/09/14 07:52:39;;;;;;;1.88;1.20;;;;;;;;;;5064846;28;20017;-54
2021/09/14 07:55:06;;;;;;;0.93;0.80;;;;;;;;;;5064361;28;20028;-54
2021/09/14 07:57:32;;;;;;;1.52;0.90;;;;;;;;;;5063471;28;20024;-53
2021/09/14 07:59:58;;;;;;;0.95;0.95;;;;;;;;;;5064692;28;20025;-53
2021/09/14 08:02:25;;;;;;;1.00;0.90;;;;;;;;;;5064602;28;20439;-54
2021/09/14 08:04:52;;;;;;;0.88;0.88;;;;;;;;;;5064860;28;20039;-53
2021/09/14 08:07:20;;;;;;;1.02;1.00;;;;;;;;;;5064417;28;20029;-54
2021/09/14 08:09:46;;;;;;;1.23;1.13;;;;;;;;;;5065264;28;20032;-53
2021/09/14 08:12:12;;;;;;;0.70;0.70;;;;;;;;;;5064615;28;20095;-53
2021/09/14 08:14:38;;;;;;;1.10;1.00;;;;;;;;;;5064954;28;20056;-53
2021/09/14 08:17:04;;;;;;;1.10;1.00;;;;;;;;;;5064876;28;20102;-54
2021/09/14 08:19:30;;;;;;;1.10;1.00;;;;;;;;;;5064673;28;20107;-53
2021/09/14 08:21:58;;;;;;;0.82;0.82;;;;;;;;;;5064704;28;20032;-51
2021/09/14 08:24:24;;;;;;;0.95;0.90;;;;;;;;;;5064830;28;20108;-52
2021/09/14 08:26:50;;;;;;;1.20;1.08;;;;;;;;;;5064616;28;20025;-50
2021/09/14 08:29:16;;;;;;;0.82;0.82;;;;;;;;;;5068433;28;20066;-54
2021/09/14 08:31:44;;;;;;;0.80;0.80;;;;;;;;;;5069221;28;20017;-50
2021/09/14 08:34:10;;;;;;;1.38;0.98;;;;;;;;;;5068204;28;20028;-50
2021/09/14 08:36:37;;;;;;;1.10;0.80;;;;;;;;;;5068342;28;20411;-52
2021/09/14 08:39:04;;;;;;;1.25;0.80;;;;;;;;;;5068207;28;20537;-54
2021/09/14 08:41:30;;;;;;;0.95;0.80;;;;;;;;;;5068391;28;20464;-53
2021/09/14 08:43:56;;;;;;;1.58;1.00;;;;;;;;;;5068676;28;20032;-52
2021/09/14 08:46:23;;;;;;;1.20;1.10;;;;;;;;;;5068134;28;20419;-54
2021/09/14 08:48:49;;;;;;;1.42;1.08;;;;;;;;;;5067919;28;20025;-51
2021/09/14 08:51:16;;;;;;;0.95;0.88;;;;;;;;;;5068030;28;20024;-54
2021/09/14 08:53:42;;;;;;;1.25;1.00;;;;;;;;;;5068495;28;20656;-50
2021/09/14 08:56:10;;;;;;;1.00;1.00;;;;;;;;;;5067881;28;20537;-52
2021/09/14 08:58:36;;;;;;;2.42;1.00;;;;;;;;;;5068646;28;20079;-50
2021/09/14 09:01:02;;;;;;;1.00;1.00;;;;;;;;;;5067913;28;20055;-50
2021/09/14 09:03:29;;;;;;;1.10;1.05;;;;;;;;;;5067885;28;20477;-52
2021/09/14 09:05:57;;;;;;;1.15;0.93;;;;;;;;;;5068019;28;20016;-52
2021/09/14 09:08:27;;;;;;;1.40;0.80;;;;;;;;;;5067696;28;20032;-50
2021/09/14 09:11:06;;;;;;;0.90;0.90;;;;;;;;;;5067780;28;20032;-51
2021/09/14 09:13:33;;;;;;;0.70;0.70;;;;;;;;;;5068086;28;20096;-53
2021/09/14 09:16:01;;;;;;;0.80;0.80;;;;;;;;;;5067747;28;20502;-51
2021/09/14 09:18:28;;;;;;;0.70;0.70;;;;;;;;;;5067573;28;20056;-52
2021/09/14 09:21:01;;;;;;;1.23;0.93;;;;;;;;;;5067641;28;20051;-51
2021/09/14 09:23:28;;;;;;;0.80;0.80;;;;;;;;;;5067802;28;20445;-52
2021/09/14 09:26:07;;;;;;;0.98;0.85;;;;;;;;;;5067820;28;20355;-51
2021/09/14 09:28:33;;;;;;;0.70;0.70;;;;;;;;;;5067597;28;20035;-50
2021/09/14 09:31:00;;;;;;;0.63;0.63;;;;;;;;;;5067763;28;20562;-51
2021/09/14 09:33:27;;;;;;;0.80;0.80;;;;;;;;;;5067635;28;20063;-50
2021/09/14 09:35:59;;;;;;;0.93;0.93;;;;;;;;;;5067416;28;20502;-50
2021/09/14 09:38:25;;;;;;;1.13;0.90;;;;;;;;;;5067369;28;20017;-50
2021/09/14 09:40:51;;;;;;;1.23;0.80;;;;;;;;;;5066343;28;20775;-52
2021/09/14 09:43:26;;;;;;;0.95;0.90;;;;;;;;;;5066986;28;20119;-51
2021/09/14 09:45:52;;;;;;;1.15;1.10;;;;;;;;;;5067634;28;20033;-51
2021/09/14 09:48:18;;;;;;;0.80;0.80;;;;;;;;;;5066894;28;20027;-55
2021/09/14 09:50:44;;;;;;;0.90;0.90;;;;;;;;;;5067114;28;20032;-51
2021/09/14 09:53:11;;;;;;;0.80;0.80;;;;;;;;;;5066814;28;20028;-51
2021/09/14 09:55:39;;;;;;;0.70;0.70;;;;;;;;;;5066868;28;20040;-54
2021/09/14 09:58:06;;;;;;;0.80;0.80;;;;;;;;;;5066125;28;20048;-53
2021/09/14 10:00:38;;;;;;;0.90;0.90;;;;;;;;;;5067087;28;20082;-51
2021/09/14 10:03:26;;;;;;;1.02;1.02;;;;;;;;;;5066279;28;20028;-52
2021/09/14 10:05:55;;;;;;;0.80;0.80;;;;;;;;;;5067245;28;20032;-51
2021/09/14 10:08:25;;;;;;;1.50;1.13;;;;;;;;;;5066451;28;20028;-50
2021/09/14 10:10:58;;;;;;;1.88;1.33;;;;;;;;;;5066426;28;20051;-55
2021/09/14 10:13:31;;;;;;;1.52;1.23;;;;;;;;;;5066186;28;20503;-54
2021/09/14 10:15:57;;;;;;;1.27;1.10;;;;;;;;;;5067070;28;20546;-52
2021/09/14 10:18:28;;;;;;;1.35;1.25;;;;;;;;;;5067650;28;20039;-54
2021/09/14 10:20:54;;;;;;;1.30;1.20;;;;;;;;;;5066425;28;20119;-52
2021/09/14 10:23:21;;;;;;;1.15;1.10;;;;;;;;;;5056450;28;20027;-54
2021/09/14 10:25:52;;;;;;;1.40;1.30;;;;;;;;;;5067098;28;20033;-54
2021/09/14 10:28:19;;;;;;;1.50;1.27;;;;;;;;;;5066076;28;20029;-54
2021/09/14 10:30:47;;;;;;;1.75;1.08;;;;;;;;;;5066759;28;20443;-51
2021/09/14 10:33:24;;;;;;;1.30;1.15;;;;;;;;;;5066455;28;20036;-53
2021/09/14 10:35:50;;;;;;;1.48;1.20;;;;;;;;;;5066376;28;20309;-52
2021/09/14 10:38:17;;;;;;;1.88;1.23;;;;;;;;;;5066582;28;20540;-53
2021/09/14 10:40:47;;;;;;;0.88;0.88;;;;;;;;;;5066378;28;20032;-52
2021/09/14 10:43:26;;;;;;;1.25;1.10;;;;;;;;;;5072802;28;20402;-53
2021/09/14 10:45:53;;;;;;;1.52;1.25;;;;;;;;;;5072550;28;20383;-54
2021/09/14 10:48:23;;;;;;;2.15;1.50;;;;;;;;;;5071453;28;20055;-54
2021/09/14 10:50:50;;;;;;;2.28;1.58;;;;;;;;;;5065182;28;20086;-53
2021/09/14 10:53:22;;;;;;;1.92;1.58;;;;;;;;;;5066122;28;20032;-55
2021/09/14 10:55:55;;;;;;;1.52;1.42;;;;;;;;;;5078461;28;20035;-54
2021/09/14 10:58:22;;;;;;;1.33;1.23;;;;;;;;;;5069756;28;20643;-55
2021/09/14 11:00:49;;;;;;;1.60;1.40;;;;;;;;;;5072529;28;20033;-54
2021/09/14 11:03:17;;;;;;;1.10;1.00;;;;;;;;;;5087566;28;20457;-55
2021/09/14 11:05:53;;;;;;;1.05;1.00;;;;;;;;;;5086699;28;20040;-54
2021/09/14 11:08:26;;;;;;;1.20;1.10;;;;;;;;;;5084772;28;20118;-55
2021/09/14 11:10:59;;;;;;;1.20;1.10;;;;;;;;;;5085689;28;20020;-54
2021/09/14 11:13:26;;;;;;;1.40;1.30;;;;;;;;;;5084968;28;20020;-50
2021/09/14 11:16:00;;;;;;;2.58;1.40;;;;;;;;;;5085730;28;20383;-52
2021/09/14 11:18:29;;;;;;;2.13;1.50;;;;;;;;;;5085703;28;20042;-55
2021/09/14 11:21:01;;;;;;;2.38;1.73;;;;;;;;;;5085481;28;20437;-54
2021/09/14 11:23:27;;;;;;;1.40;1.23;;;;;;;;;;5085910;28;20395;-52
2021/09/14 11:25:54;;;;;;;4.72;1.90;;;;;;;;;;5085841;28;20103;-50
2021/09/14 11:28:20;;;;;;;2.55;1.63;;;;;;;;;;5084823;28;20024;-54
2021/09/14 11:30:57;;;;;;;1.83;1.63;;;;;;;;;;5085922;28;20379;-52
2021/09/14 11:33:24;;;;;;;5.10;1.50;;;;;;;;;;5085315;28;20422;-51
2021/09/14 11:35:50;;;;;;;1.65;1.50;;;;;;;;;;5085445;28;20499;-54
2021/09/14 11:38:19;;;;;;;3.10;1.40;;;;;;;;;;5085771;28;20028;-52
2021/09/14 11:40:46;;;;;;;1.88;1.50;;;;;;;;;;5086078;28;20024;-50
2021/09/14 11:43:17;;;;;;;1.70;1.40;;;;;;;;;;5085116;28;20406;-53
2021/09/14 11:45:43;;;;;;;1.63;1.52;;;;;;;;;;5085991;28;20024;-52
2021/09/14 11:48:16;;;;;;;1.23;1.13;;;;;;;;;;5085286;28;20028;-52
2021/09/14 11:50:42;;;;;;;1.52;1.35;;;;;;;;;;5066732;28;20524;-54
2021/09/14 11:53:11;;;;;;;2.03;1.25;;;;;;;;;;5085021;28;20024;-51
2021/09/14 11:55:41;;;;;;;2.60;1.77;;;;;;;;;;5085250;28;20125;-50
2021/09/14 11:58:07;;;;;;;1.58;1.35;;;;;;;;;;5084763;28;20039;-49
2021/09/14 12:00:35;;;;;;;2.28;1.40;;;;;;;;;;5085031;28;20595;-53
2021/09/14 12:03:01;;;;;;;2.05;1.50;;;;;;;;;;5066103;28;20032;-54
2021/09/14 12:05:27;;;;;;;1.70;1.60;;;;;;;;;;5085096;28;20059;-53
2021/09/14 12:08:00;;;;;;;2.08;1.73;;;;;;;;;;5085387;28;20024;-53
2021/09/14 12:10:28;;;;;;;2.20;1.58;;;;;;;;;;5084988;28;20059;-53
2021/09/14 12:12:55;;;;;;;1.65;1.30;;;;;;;;;;5084753;28;20464;-50
2021/09/14 12:15:22;;;;;;;2.05;1.55;;;;;;;;;;5084541;28;20047;-51
2021/09/14 12:17:49;;;;;;;1.70;1.40;;;;;;;;;;5085202;28;20533;-50
2021/09/14 12:20:16;;;;;;;1.95;1.35;;;;;;;;;;5085477;28;20036;-50
2021/09/14 12:22:42;;;;;;;2.10;1.50;;;;;;;;;;5084939;28;20028;-51
2021/09/14 12:25:08;;;;;;;1.35;1.25;;;;;;;;;;5084620;28;20270;-51
2021/09/14 12:27:35;;;;;;;1.67;1.38;;;;;;;;;;5084940;28;20498;-53
2021/09/14 12:30:01;;;;;;;1.88;1.70;;;;;;;;;;5084354;28;20098;-53
2021/09/14 12:32:27;;;;;;;1.40;1.30;;;;;;;;;;5084851;28;20048;-50
2021/09/14 12:34:53;;;;;;;2.10;1.80;;;;;;;;;;5085057;28;20032;-53
2021/09/14 12:37:19;;;;;;;2.00;1.45;;;;;;;;;;5084686;28;20094;-52
2021/09/14 12:39:45;;;;;;;1.58;1.40;;;;;;;;;;5085467;28;20032;-50
2021/09/14 12:42:11;;;;;;;2.08;1.30;;;;;;;;;;5084481;28;20059;-53
2021/09/14 12:44:37;;;;;;;2.03;1.63;;;;;;;;;;5084553;28;20063;-51
2021/09/14 12:47:04;;;;;;;1.55;1.45;;;;;;;;;;5084754;28;20106;-52
2021/09/14 12:49:32;;;;;;;1.05;1.00;;;;;;;;;;5084080;28;20077;-52
2021/09/14 12:51:58;;;;;;;1.95;1.20;;;;;;;;;;5084796;28;20020;-52
2021/09/14 12:54:24;;;;;;;1.33;1.20;;;;;;;;;;5084492;28;20406;-53
2021/09/14 12:56:50;;;;;;;2.35;1.50;;;;;;;;;;5084638;28;20024;-54
2021/09/14 12:59:17;;;;;;;1.70;1.30;;;;;;;;;;5085021;28;20032;-49
2021/09/14 13:01:43;;;;;;;1.30;1.20;;;;;;;;;;5084935;28;20816;-53
2021/09/14 13:04:09;;;;;;;2.47;1.60;;;;;;;;;;5084642;28;20055;-48
2021/09/14 13:06:36;;;;;;;2.15;1.38;;;;;;;;;;5084540;28;20028;-53
2021/09/14 13:09:04;;;;;;;1.40;1.27;;;;;;;;;;5084385;28;20024;-54
2021/09/14 13:11:30;;;;;;;2.47;1.67;;;;;;;;;;5084396;28;20027;-50
2021/09/14 13:16:41;;;;;;;1.65;1.55;;;;;;;;;;5088412;28;20467;-51
2021/09/14 13:19:07;;;;;;;1.52;1.35;;;;;;;;;;5087804;28;20643;-54
2021/09/14 13:21:33;;;;;;;1.40;1.30;;;;;;;;;;5087671;28;20490;-54
2021/09/14 13:24:00;;;;;;;2.00;1.38;;;;;;;;;;5088094;28;20111;-51
2021/09/14 13:26:26;;;;;;;2.28;1.30;;;;;;;;;;5088267;28;20017;-52
2021/09/14 13:28:53;;;;;;;2.88;1.45;;;;;;;;;;5087783;28;20660;-52
2021/09/14 13:31:19;;;;;;;2.22;1.40;;;;;;;;;;5087035;28;20024;-50
2021/09/14 13:33:46;;;;;;;3.38;1.58;;;;;;;;;;5088374;28;20402;-51
2021/09/14 13:36:14;;;;;;;2.83;2.00;;;;;;;;;;5087972;28;20032;-53
2021/09/14 13:38:40;;;;;;;2.20;1.77;;;;;;;;;;5075079;28;20487;-54
2021/09/14 13:41:13;;;;;;;1.50;1.40;;;;;;;;;;5067326;28;20607;-55
2021/09/14 13:46:14;;;;;;;2.95;1.77;;;;;;;;;;5086510;28;20040;-51
2021/09/14 13:48:41;;;;;;;2.75;1.80;;;;;;;;;;5075559;28;20060;-54
2021/09/14 13:51:11;;;;;;;1.90;1.50;;;;;;;;;;5081958;28;20113;-54
2021/09/14 13:53:42;;;;;;;2.58;1.50;;;;;;;;;;5087466;28;20020;-54
2021/09/14 13:56:08;;;;;;;5.35;1.50;;;;;;;;;;5085282;28;20034;-54
2021/09/14 13:58:34;;;;;;;2.35;1.60;;;;;;;;;;5068932;28;20118;-51
2021/09/14 14:01:01;;;;;;;2.83;2.00;;;;;;;;;;5087028;28;20447;-55
2021/09/14 14:03:28;;;;;;;4.03;1.80;;;;;;;;;;5087147;28;20410;-50
2021/09/14 14:05:55;;;;;;;3.33;1.83;;;;;;;;;;5087037;28;20056;-51
2021/09/14 14:08:21;;;;;;;2.72;2.10;;;;;;;;;;5086930;28;20034;-53
2021/09/14 14:10:47;;;;;;;3.17;1.80;;;;;;;;;;5087044;28;20406;-51
2021/09/14 14:13:14;;;;;;;2.92;1.77;;;;;;;;;;5087323;28;20107;-51
2021/09/14 14:15:41;;;;;;;5.65;2.10;;;;;;;;;;5086727;28;20433;-54
2021/09/14 14:18:07;;;;;;;3.10;2.10;;;;;;;;;;5086650;28;20031;-49
2021/09/14 14:20:33;;;;;;;3.22;1.90;;;;;;;;;;5086843;28;20062;-52
2021/09/14 14:23:00;;;;;;;3.78;2.00;;;;;;;;;;5086737;28;20051;-51
2021/09/14 14:25:26;;;;;;;3.40;2.17;;;;;;;;;;5086313;28;20028;-51
2021/09/14 14:27:53;;;;;;;4.38;2.30;;;;;;;;;;5086517;28;20107;-50
2021/09/14 14:30:19;;;;;;;3.30;2.33;;;;;;;;;;5086777;28;20032;-54
2021/09/14 14:32:45;;;;;;;3.35;1.80;;;;;;;;;;5087091;28;20016;-51
2021/09/14 14:35:11;;;;;;;5.38;2.10;;;;;;;;;;5086343;28;20027;-52
2021/09/14 14:37:38;;;;;;;3.38;2.05;;;;;;;;;;5086652;28;20035;-53
2021/09/14 14:40:04;;;;;;;3.78;2.22;;;;;;;;;;5086312;28;20035;-52
2021/09/14 14:42:30;;;;;;;4.68;2.05;;;;;;;;;;5086452;28;20112;-53
2021/09/14 14:44:57;;;;;;;3.08;2.13;;;;;;;;;;5086269;28;20542;-50
2021/09/14 14:47:23;;;;;;;3.60;2.17;;;;;;;;;;5086066;28;20487;-50
2021/09/14 14:49:49;;;;;;;4.53;2.40;;;;;;;;;;5085672;28;20040;-53
2021/09/14 14:52:15;;;;;;;3.95;2.08;;;;;;;;;;5086394;28;20031;-51
2021/09/14 14:54:41;;;;;;;3.13;2.20;;;;;;;;;;5086199;28;20103;-52
2021/09/14 14:57:07;;;;;;;4.38;2.40;;;;;;;;;;5086049;28;20070;-54
2021/09/14 14:59:34;;;;;;;3.28;1.90;;;;;;;;;;5086073;28;20077;-53
2021/09/14 15:02:00;;;;;;;1.95;1.73;;;;;;;;;;5085815;28;20020;-54
2021/09/14 15:04:27;;;;;;;1.90;1.70;;;;;;;;;;5086161;28;20148;-52
2021/09/14 15:06:54;;;;;;;5.60;1.98;;;;;;;;;;5085942;28;20491;-51
2021/09/14 15:09:21;;;;;;;3.72;1.80;;;;;;;;;;5085676;28;20106;-50
2021/09/14 15:11:47;;;;;;;1.50;1.30;;;;;;;;;;5086676;28;20020;-54
2021/09/14 15:14:14;;;;;;;3.90;1.90;;;;;;;;;;5086193;28;20035;-52
2021/09/14 15:16:40;;;;;;;2.65;1.63;;;;;;;;;;5086039;28;20028;-54
2021/09/14 15:19:07;;;;;;;3.10;1.80;;;;;;;;;;5085675;28;20020;-53
2021/09/14 15:21:33;;;;;;;4.30;2.00;;;;;;;;;;5085381;28;20035;-51
2021/09/14 15:23:59;;;;;;;3.20;1.90;;;;;;;;;;5085693;28;20110;-55
2021/09/14 15:26:26;;;;;;;2.53;1.70;;;;;;;;;;5085726;28;20099;-50
2021/09/14 15:28:55;;;;;;;3.10;1.88;;;;;;;;;;5085485;28;20027;-50
2021/09/14 15:31:22;;;;;;;2.50;2.00;;;;;;;;;;5085074;28;20027;-53
2021/09/14 15:33:48;;;;;;;2.10;1.90;;;;;;;;;;5085520;28;20103;-53
2021/09/14 15:36:16;;;;;;;5.63;2.15;;;;;;;;;;5085770;28;20409;-50
2021/09/14 15:38:41;;;;;;;4.13;1.90;;;;;;;;;;5084713;28;20166;-53
2021/09/14 15:41:11;;;;;;;3.17;2.00;;;;;;;;;;5085425;28;20059;-51
2021/09/14 15:43:37;;;;;;;2.40;1.85;;;;;;;;;;5085722;28;20039;-53
2021/09/14 15:46:04;;;;;;;2.35;1.73;;;;;;;;;;5085110;28;20035;-50